sensor_id;sensor_type;location;lat;lon;timestamp;noise_LAeq;noise_LA_min;noise_LA_max;noise_LA01;noise_LA95
74292;Laerm;62687;55.738;37.516;2022-10-22T00:01:44;68.69;61.59;78.02;;
74292;Laerm;62687;55.738;37.516;2022-10-22T00:04:28;66.77;60.69;72.48;;
74292;Laerm;62687;55.738;37.516;2022-10-22T00:07:13;67.35;56.71;72.84;;
74292;Laerm;62687;55.738;37.516;2022-10-22T00:09:57;68.64;61.77;83.60;;
74292;Laerm;62687;55.738;37.516;2022-10-22T00:12:42;66.64;60.06;72.93;;
74292;Laerm;62687;55.738;37.516;2022-10-22T00:15:26;66.70;59.77;74.87;;
74292;Laerm;62687;55.738;37.516;2022-10-22T00:18:10;67.65;61.52;72.26;;
74292;Laerm;62687;55.738;37.516;2022-10-22T00:20:57;67.32;60.90;73.71;;
74292;Laerm;62687;55.738;37.516;2022-10-22T00:23:42;67.61;61.35;77.54;;
74292;Laerm;62687;55.738;37.516;2022-10-22T00:26:26;69.34;61.78;79.21;;
74292;Laerm;62687;55.738;37.516;2022-10-22T00:29:10;68.38;60.52;75.75;;
74292;Laerm;62687;55.738;37.516;2022-10-22T00:31:55;69.36;63.55;80.33;;
74292;Laerm;62687;55.738;37.516;2022-10-22T00:34:39;68.13;62.05;83.65;;
74292;Laerm;62687;55.738;37.516;2022-10-22T00:37:23;67.30;58.58;72.65;;
74292;Laerm;62687;55.738;37.516;2022-10-22T00:40:07;66.11;57.75;72.75;;
74292;Laerm;62687;55.738;37.516;2022-10-22T00:42:52;68.10;59.14;78.73;;
74292;Laerm;62687;55.738;37.516;2022-10-22T00:45:36;67.88;61.20;73.65;;
74292;Laerm;62687;55.738;37.516;2022-10-22T00:48:29;67.27;60.90;75.79;;
74292;Laerm;62687;55.738;37.516;2022-10-22T00:51:14;66.17;59.16;72.28;;
74292;Laerm;62687;55.738;37.516;2022-10-22T00:54:04;66.51;60.20;73.32;;
74292;Laerm;62687;55.738;37.516;2022-10-22T00:56:49;66.83;59.71;72.95;;
74292;Laerm;62687;55.738;37.516;2022-10-22T00:59:34;67.04;60.06;75.90;;
74292;Laerm;62687;55.738;37.516;2022-10-22T01:02:19;67.56;60.58;81.35;;
74292;Laerm;62687;55.738;37.516;2022-10-22T01:05:03;66.00;58.30;71.26;;
74292;Laerm;62687;55.738;37.516;2022-10-22T01:07:50;67.37;60.38;75.15;;
74292;Laerm;62687;55.738;37.516;2022-10-22T01:10:47;68.29;60.07;78.22;;
74292;Laerm;62687;55.738;37.516;2022-10-22T01:13:50;67.16;59.95;72.20;;
74292;Laerm;62687;55.738;37.516;2022-10-22T01:22:51;67.21;61.60;73.19;;
74292;Laerm;62687;55.738;37.516;2022-10-22T01:25:48;66.80;58.85;75.86;;
74292;Laerm;62687;55.738;37.516;2022-10-22T01:32:00;69.85;63.18;86.88;;
74292;Laerm;62687;55.738;37.516;2022-10-22T01:34:48;67.23;58.04;73.55;;
74292;Laerm;62687;55.738;37.516;2022-10-22T01:37:39;68.36;60.42;79.44;;
74292;Laerm;62687;55.738;37.516;2022-10-22T01:40:25;67.09;59.97;71.91;;
74292;Laerm;62687;55.738;37.516;2022-10-22T01:43:10;67.20;60.34;73.48;;
74292;Laerm;62687;55.738;37.516;2022-10-22T01:45:59;67.12;61.95;72.68;;
74292;Laerm;62687;55.738;37.516;2022-10-22T01:51:48;66.79;58.46;76.58;;
74292;Laerm;62687;55.738;37.516;2022-10-22T01:54:49;68.03;61.71;74.94;;
74292;Laerm;62687;55.738;37.516;2022-10-22T01:57:48;68.31;61.63;76.73;;
74292;Laerm;62687;55.738;37.516;2022-10-22T02:00:37;68.77;60.48;80.03;;
74292;Laerm;62687;55.738;37.516;2022-10-22T02:03:32;67.25;60.41;72.33;;
74292;Laerm;62687;55.738;37.516;2022-10-22T02:06:21;67.30;60.19;73.60;;
74292;Laerm;62687;55.738;37.516;2022-10-22T02:09:08;66.77;60.65;73.56;;
74292;Laerm;62687;55.738;37.516;2022-10-22T02:11:56;67.39;59.63;72.66;;
74292;Laerm;62687;55.738;37.516;2022-10-22T02:14:42;67.95;59.60;75.59;;
74292;Laerm;62687;55.738;37.516;2022-10-22T02:17:30;67.27;58.49;74.50;;
74292;Laerm;62687;55.738;37.516;2022-10-22T02:20:25;67.89;59.42;76.20;;
74292;Laerm;62687;55.738;37.516;2022-10-22T02:23:10;68.03;58.20;75.44;;
74292;Laerm;62687;55.738;37.516;2022-10-22T02:26:02;66.50;59.67;71.88;;
74292;Laerm;62687;55.738;37.516;2022-10-22T02:32:02;67.07;59.73;73.75;;
74292;Laerm;62687;55.738;37.516;2022-10-22T02:34:49;69.24;60.26;85.15;;
74292;Laerm;62687;55.738;37.516;2022-10-22T02:37:34;66.77;58.38;73.73;;
74292;Laerm;62687;55.738;37.516;2022-10-22T02:40:19;67.46;58.57;78.97;;
74292;Laerm;62687;55.738;37.516;2022-10-22T02:43:04;68.18;59.93;72.91;;
74292;Laerm;62687;55.738;37.516;2022-10-22T02:45:48;67.04;58.92;72.62;;
74292;Laerm;62687;55.738;37.516;2022-10-22T02:48:33;68.30;61.49;74.01;;
74292;Laerm;62687;55.738;37.516;2022-10-22T02:51:17;67.24;61.33;71.45;;
74292;Laerm;62687;55.738;37.516;2022-10-22T02:54:01;67.53;61.06;78.61;;
74292;Laerm;62687;55.738;37.516;2022-10-22T02:56:44;66.61;58.12;72.02;;
74292;Laerm;62687;55.738;37.516;2022-10-22T02:59:29;68.40;60.76;73.95;;
74292;Laerm;62687;55.738;37.516;2022-10-22T03:02:13;67.81;59.39;73.81;;
74292;Laerm;62687;55.738;37.516;2022-10-22T03:04:57;68.40;61.97;74.42;;
74292;Laerm;62687;55.738;37.516;2022-10-22T03:07:42;66.99;61.55;73.45;;
74292;Laerm;62687;55.738;37.516;2022-10-22T03:10:25;67.15;60.23;72.62;;
74292;Laerm;62687;55.738;37.516;2022-10-22T03:13:09;68.04;61.11;72.71;;
74292;Laerm;62687;55.738;37.516;2022-10-22T03:15:53;68.25;61.35;75.43;;
74292;Laerm;62687;55.738;37.516;2022-10-22T03:18:37;68.20;62.52;72.77;;
74292;Laerm;62687;55.738;37.516;2022-10-22T03:21:33;69.37;61.53;80.01;;
74292;Laerm;62687;55.738;37.516;2022-10-22T03:24:22;68.90;64.12;72.75;;
74292;Laerm;62687;55.738;37.516;2022-10-22T03:27:09;69.08;63.89;73.13;;
74292;Laerm;62687;55.738;37.516;2022-10-22T03:29:54;69.01;62.99;74.25;;
74292;Laerm;62687;55.738;37.516;2022-10-22T03:32:39;69.20;62.37;75.33;;
74292;Laerm;62687;55.738;37.516;2022-10-22T03:35:24;69.37;64.18;76.40;;
74292;Laerm;62687;55.738;37.516;2022-10-22T03:38:08;69.32;65.11;73.42;;
74292;Laerm;62687;55.738;37.516;2022-10-22T03:40:52;68.99;62.75;73.42;;
74292;Laerm;62687;55.738;37.516;2022-10-22T03:43:37;69.58;64.69;73.95;;
74292;Laerm;62687;55.738;37.516;2022-10-22T03:46:22;69.75;64.57;74.26;;
74292;Laerm;62687;55.738;37.516;2022-10-22T03:49:06;69.88;63.85;76.72;;
74292;Laerm;62687;55.738;37.516;2022-10-22T03:51:50;69.50;64.82;74.15;;
74292;Laerm;62687;55.738;37.516;2022-10-22T03:54:34;70.09;66.09;77.23;;
74292;Laerm;62687;55.738;37.516;2022-10-22T03:57:18;69.27;63.87;75.38;;
74292;Laerm;62687;55.738;37.516;2022-10-22T04:00:04;69.92;63.39;75.44;;
74292;Laerm;62687;55.738;37.516;2022-10-22T04:02:48;69.89;64.01;73.93;;
74292;Laerm;62687;55.738;37.516;2022-10-22T04:05:33;69.28;63.21;73.66;;
74292;Laerm;62687;55.738;37.516;2022-10-22T04:08:17;69.54;63.91;74.54;;
74292;Laerm;62687;55.738;37.516;2022-10-22T04:11:01;69.52;64.23;74.54;;
74292;Laerm;62687;55.738;37.516;2022-10-22T04:13:45;70.26;64.98;76.57;;
74292;Laerm;62687;55.738;37.516;2022-10-22T04:16:29;70.73;66.08;74.95;;
74292;Laerm;62687;55.738;37.516;2022-10-22T04:19:14;71.28;66.28;78.21;;
74292;Laerm;62687;55.738;37.516;2022-10-22T04:21:59;70.40;65.14;76.16;;
74292;Laerm;62687;55.738;37.516;2022-10-22T04:24:43;71.11;64.07;81.58;;
74292;Laerm;62687;55.738;37.516;2022-10-22T04:27:32;70.48;64.93;78.00;;
74292;Laerm;62687;55.738;37.516;2022-10-22T04:30:16;71.14;65.61;86.55;;
74292;Laerm;62687;55.738;37.516;2022-10-22T04:33:00;70.34;65.34;75.55;;
74292;Laerm;62687;55.738;37.516;2022-10-22T04:35:45;70.79;66.03;74.46;;
74292;Laerm;62687;55.738;37.516;2022-10-22T04:38:29;70.88;66.44;75.94;;
74292;Laerm;62687;55.738;37.516;2022-10-22T04:41:16;71.54;66.04;79.77;;
74292;Laerm;62687;55.738;37.516;2022-10-22T04:44:01;71.96;67.96;79.59;;
74292;Laerm;62687;55.738;37.516;2022-10-22T04:46:45;71.66;66.50;77.64;;
74292;Laerm;62687;55.738;37.516;2022-10-22T04:49:29;71.60;66.93;79.49;;
74292;Laerm;62687;55.738;37.516;2022-10-22T04:52:13;71.66;66.88;78.81;;
74292;Laerm;62687;55.738;37.516;2022-10-22T04:54:57;71.08;66.65;75.54;;
74292;Laerm;62687;55.738;37.516;2022-10-22T04:57:41;71.15;66.38;76.72;;
74292;Laerm;62687;55.738;37.516;2022-10-22T05:00:25;71.08;66.57;80.48;;
74292;Laerm;62687;55.738;37.516;2022-10-22T05:03:10;71.64;66.12;80.85;;
74292;Laerm;62687;55.738;37.516;2022-10-22T05:05:54;71.61;67.91;76.40;;
74292;Laerm;62687;55.738;37.516;2022-10-22T05:08:38;71.47;67.63;74.96;;
74292;Laerm;62687;55.738;37.516;2022-10-22T05:11:25;71.60;67.56;79.92;;
74292;Laerm;62687;55.738;37.516;2022-10-22T05:14:11;71.77;67.66;74.95;;
74292;Laerm;62687;55.738;37.516;2022-10-22T05:16:55;72.16;67.65;79.65;;
74292;Laerm;62687;55.738;37.516;2022-10-22T05:19:39;71.62;66.62;75.60;;
74292;Laerm;62687;55.738;37.516;2022-10-22T05:22:23;72.06;67.32;80.31;;
74292;Laerm;62687;55.738;37.516;2022-10-22T05:25:07;72.51;67.91;77.48;;
74292;Laerm;62687;55.738;37.516;2022-10-22T05:27:52;72.49;67.68;77.37;;
74292;Laerm;62687;55.738;37.516;2022-10-22T05:30:36;72.38;67.11;81.46;;
74292;Laerm;62687;55.738;37.516;2022-10-22T05:33:20;72.17;67.95;82.00;;
74292;Laerm;62687;55.738;37.516;2022-10-22T05:36:06;72.84;67.94;82.38;;
74292;Laerm;62687;55.738;37.516;2022-10-22T05:38:51;72.34;68.46;76.83;;
74292;Laerm;62687;55.738;37.516;2022-10-22T05:41:35;72.76;68.65;79.44;;
74292;Laerm;62687;55.738;37.516;2022-10-22T05:44:20;72.41;68.93;75.40;;
74292;Laerm;62687;55.738;37.516;2022-10-22T05:47:04;72.33;67.87;80.12;;
74292;Laerm;62687;55.738;37.516;2022-10-22T05:49:48;72.56;69.15;77.29;;
74292;Laerm;62687;55.738;37.516;2022-10-22T05:52:32;72.65;69.00;75.95;;
74292;Laerm;62687;55.738;37.516;2022-10-22T05:55:16;72.06;67.56;75.49;;
74292;Laerm;62687;55.738;37.516;2022-10-22T05:58:00;72.10;68.13;81.52;;
74292;Laerm;62687;55.738;37.516;2022-10-22T06:00:43;71.69;67.25;77.72;;
74292;Laerm;62687;55.738;37.516;2022-10-22T06:03:27;72.08;68.38;80.46;;
74292;Laerm;62687;55.738;37.516;2022-10-22T06:06:27;72.02;67.84;79.72;;
74292;Laerm;62687;55.738;37.516;2022-10-22T06:09:16;72.02;66.67;78.07;;
74292;Laerm;62687;55.738;37.516;2022-10-22T06:12:01;72.17;68.53;79.03;;
74292;Laerm;62687;55.738;37.516;2022-10-22T06:14:45;71.46;67.27;76.69;;
74292;Laerm;62687;55.738;37.516;2022-10-22T06:17:29;72.18;67.62;76.80;;
74292;Laerm;62687;55.738;37.516;2022-10-22T06:20:14;72.20;68.58;78.25;;
74292;Laerm;62687;55.738;37.516;2022-10-22T06:22:58;72.56;69.08;78.65;;
74292;Laerm;62687;55.738;37.516;2022-10-22T06:25:42;73.24;68.18;85.91;;
74292;Laerm;62687;55.738;37.516;2022-10-22T06:28:26;72.33;67.71;78.47;;
74292;Laerm;62687;55.738;37.516;2022-10-22T06:31:11;72.08;68.36;78.03;;
74292;Laerm;62687;55.738;37.516;2022-10-22T06:33:55;71.86;67.99;82.95;;
74292;Laerm;62687;55.738;37.516;2022-10-22T06:36:40;72.07;68.15;80.39;;
74292;Laerm;62687;55.738;37.516;2022-10-22T06:39:25;71.86;68.86;75.34;;
74292;Laerm;62687;55.738;37.516;2022-10-22T06:42:09;72.22;68.93;76.98;;
74292;Laerm;62687;55.738;37.516;2022-10-22T06:44:53;72.30;68.20;77.04;;
74292;Laerm;62687;55.738;37.516;2022-10-22T06:47:37;72.22;68.72;78.20;;
74292;Laerm;62687;55.738;37.516;2022-10-22T06:50:21;72.37;68.57;76.22;;
74292;Laerm;62687;55.738;37.516;2022-10-22T06:53:05;72.66;68.38;85.20;;
74292;Laerm;62687;55.738;37.516;2022-10-22T06:55:48;72.81;68.88;85.07;;
74292;Laerm;62687;55.738;37.516;2022-10-22T06:58:33;72.73;69.24;83.98;;
74292;Laerm;62687;55.738;37.516;2022-10-22T07:01:19;72.86;69.43;77.40;;
74292;Laerm;62687;55.738;37.516;2022-10-22T07:04:04;72.88;69.03;80.95;;
74292;Laerm;62687;55.738;37.516;2022-10-22T07:06:49;72.12;69.08;78.83;;
74292;Laerm;62687;55.738;37.516;2022-10-22T07:09:33;72.18;68.15;76.20;;
74292;Laerm;62687;55.738;37.516;2022-10-22T07:12:17;72.70;69.08;83.20;;
74292;Laerm;62687;55.738;37.516;2022-10-22T07:15:00;72.68;69.02;86.31;;
74292;Laerm;62687;55.738;37.516;2022-10-22T07:17:44;73.28;69.36;89.39;;
74292;Laerm;62687;55.738;37.516;2022-10-22T07:20:28;72.36;68.67;83.67;;
74292;Laerm;62687;55.738;37.516;2022-10-22T07:23:12;72.19;69.16;75.18;;
74292;Laerm;62687;55.738;37.516;2022-10-22T07:25:56;73.16;68.61;87.18;;
74292;Laerm;62687;55.738;37.516;2022-10-22T07:28:41;72.51;68.62;85.17;;
74292;Laerm;62687;55.738;37.516;2022-10-22T07:31:26;72.38;69.03;75.85;;
74292;Laerm;62687;55.738;37.516;2022-10-22T07:34:10;72.37;68.89;77.11;;
74292;Laerm;62687;55.738;37.516;2022-10-22T07:36:54;72.29;68.01;79.16;;
74292;Laerm;62687;55.738;37.516;2022-10-22T07:39:40;72.51;68.68;76.67;;
74292;Laerm;62687;55.738;37.516;2022-10-22T07:42:24;72.06;68.66;74.92;;
74292;Laerm;62687;55.738;37.516;2022-10-22T07:45:08;72.33;68.16;79.75;;
74292;Laerm;62687;55.738;37.516;2022-10-22T07:47:53;72.08;68.40;75.79;;
74292;Laerm;62687;55.738;37.516;2022-10-22T07:50:37;72.28;67.40;77.45;;
74292;Laerm;62687;55.738;37.516;2022-10-22T07:53:21;72.21;68.05;80.07;;
74292;Laerm;62687;55.738;37.516;2022-10-22T07:56:05;72.56;68.04;77.82;;
74292;Laerm;62687;55.738;37.516;2022-10-22T07:58:50;72.35;68.97;79.22;;
74292;Laerm;62687;55.738;37.516;2022-10-22T08:01:34;72.24;69.06;76.76;;
74292;Laerm;62687;55.738;37.516;2022-10-22T08:04:19;72.58;68.81;79.61;;
74292;Laerm;62687;55.738;37.516;2022-10-22T08:07:03;72.44;68.87;80.32;;
74292;Laerm;62687;55.738;37.516;2022-10-22T08:09:48;72.21;67.94;86.64;;
74292;Laerm;62687;55.738;37.516;2022-10-22T08:12:31;71.86;67.55;75.36;;
74292;Laerm;62687;55.738;37.516;2022-10-22T08:15:15;72.38;68.29;79.64;;
74292;Laerm;62687;55.738;37.516;2022-10-22T08:17:59;71.85;68.16;79.91;;
74292;Laerm;62687;55.738;37.516;2022-10-22T08:20:43;72.16;67.51;82.95;;
74292;Laerm;62687;55.738;37.516;2022-10-22T08:23:27;71.47;67.37;78.09;;
74292;Laerm;62687;55.738;37.516;2022-10-22T08:26:11;70.62;66.51;75.26;;
74292;Laerm;62687;55.738;37.516;2022-10-22T08:28:56;69.72;66.60;73.98;;
74292;Laerm;62687;55.738;37.516;2022-10-22T08:31:39;70.25;65.39;76.73;;
74292;Laerm;62687;55.738;37.516;2022-10-22T08:34:23;70.49;66.18;78.30;;
74292;Laerm;62687;55.738;37.516;2022-10-22T08:37:07;71.87;67.66;75.91;;
74292;Laerm;62687;55.738;37.516;2022-10-22T08:39:53;71.65;67.26;76.22;;
74292;Laerm;62687;55.738;37.516;2022-10-22T08:45:31;71.68;67.59;77.12;;
74292;Laerm;62687;55.738;37.516;2022-10-22T08:51:23;72.11;68.84;75.61;;
74292;Laerm;62687;55.738;37.516;2022-10-22T09:06:18;72.02;67.79;81.41;;
74292;Laerm;62687;55.738;37.516;2022-10-22T09:09:14;72.28;68.12;76.89;;
74292;Laerm;62687;55.738;37.516;2022-10-22T09:12:00;72.37;68.52;75.56;;
74292;Laerm;62687;55.738;37.516;2022-10-22T09:14:45;72.34;68.96;75.88;;
74292;Laerm;62687;55.738;37.516;2022-10-22T09:17:37;72.36;67.94;78.97;;
74292;Laerm;62687;55.738;37.516;2022-10-22T09:23:49;72.46;67.58;80.42;;
74292;Laerm;62687;55.738;37.516;2022-10-22T09:26:36;72.44;68.71;81.47;;
74292;Laerm;62687;55.738;37.516;2022-10-22T09:29:23;72.24;68.49;80.67;;
74292;Laerm;62687;55.738;37.516;2022-10-22T09:32:14;72.42;68.18;78.46;;
74292;Laerm;62687;55.738;37.516;2022-10-22T09:34:59;72.32;68.25;79.07;;
74292;Laerm;62687;55.738;37.516;2022-10-22T09:37:49;72.30;68.32;77.38;;
74292;Laerm;62687;55.738;37.516;2022-10-22T09:40:47;72.50;68.69;76.21;;
74292;Laerm;62687;55.738;37.516;2022-10-22T09:43:33;72.20;68.11;78.16;;
74292;Laerm;62687;55.738;37.516;2022-10-22T09:46:21;73.01;68.36;81.29;;
74292;Laerm;62687;55.738;37.516;2022-10-22T09:49:21;72.66;68.24;81.34;;
74292;Laerm;62687;55.738;37.516;2022-10-22T09:52:25;72.10;68.58;76.32;;
74292;Laerm;62687;55.738;37.516;2022-10-22T09:55:15;72.86;69.31;79.58;;
74292;Laerm;62687;55.738;37.516;2022-10-22T09:58:02;72.30;68.04;78.53;;
74292;Laerm;62687;55.738;37.516;2022-10-22T10:00:53;72.44;69.04;77.73;;
74292;Laerm;62687;55.738;37.516;2022-10-22T10:03:37;72.32;67.90;83.92;;
74292;Laerm;62687;55.738;37.516;2022-10-22T10:06:22;72.93;68.61;77.19;;
74292;Laerm;62687;55.738;37.516;2022-10-22T10:09:25;72.23;68.52;76.52;;
74292;Laerm;62687;55.738;37.516;2022-10-22T10:15:27;72.22;68.35;75.47;;
74292;Laerm;62687;55.738;37.516;2022-10-22T10:28:20;71.94;68.30;76.18;;
74292;Laerm;62687;55.738;37.516;2022-10-22T10:34:54;72.18;68.48;75.66;;
74292;Laerm;62687;55.738;37.516;2022-10-22T10:40:43;72.61;69.13;76.56;;
74292;Laerm;62687;55.738;37.516;2022-10-22T10:46:31;73.87;68.50;80.99;;
74292;Laerm;62687;55.738;37.516;2022-10-22T10:49:25;72.07;68.51;75.71;;
74292;Laerm;62687;55.738;37.516;2022-10-22T10:52:25;72.66;69.03;76.80;;
74292;Laerm;62687;55.738;37.516;2022-10-22T10:55:35;72.76;68.95;77.32;;
74292;Laerm;62687;55.738;37.516;2022-10-22T11:10:46;72.89;69.03;80.52;;
74292;Laerm;62687;55.738;37.516;2022-10-22T11:16:36;73.09;68.55;83.82;;
74292;Laerm;62687;55.738;37.516;2022-10-22T11:22:37;72.69;69.00;80.25;;
74292;Laerm;62687;55.738;37.516;2022-10-22T11:25:29;72.09;67.42;78.58;;
74292;Laerm;62687;55.738;37.516;2022-10-22T11:28:25;72.27;69.03;78.82;;
74292;Laerm;62687;55.738;37.516;2022-10-22T11:31:16;73.20;68.73;90.44;;
74292;Laerm;62687;55.738;37.516;2022-10-22T11:34:21;72.90;69.19;81.63;;
74292;Laerm;62687;55.738;37.516;2022-10-22T11:37:09;71.99;68.83;75.74;;
74292;Laerm;62687;55.738;37.516;2022-10-22T11:39:56;72.59;68.32;78.77;;
74292;Laerm;62687;55.738;37.516;2022-10-22T11:42:52;72.05;67.89;75.52;;
74292;Laerm;62687;55.738;37.516;2022-10-22T11:45:38;72.25;68.56;75.82;;
74292;Laerm;62687;55.738;37.516;2022-10-22T11:48:26;72.28;68.44;76.25;;
74292;Laerm;62687;55.738;37.516;2022-10-22T11:51:34;72.34;68.49;82.43;;
74292;Laerm;62687;55.738;37.516;2022-10-22T12:08:59;71.76;67.49;76.92;;
74292;Laerm;62687;55.738;37.516;2022-10-22T12:11:48;72.07;68.80;78.36;;
74292;Laerm;62687;55.738;37.516;2022-10-22T12:14:55;72.43;68.57;81.25;;
74292;Laerm;62687;55.738;37.516;2022-10-22T12:17:41;72.63;68.50;77.42;;
74292;Laerm;62687;55.738;37.516;2022-10-22T12:20:28;71.74;68.25;79.61;;
74292;Laerm;62687;55.738;37.516;2022-10-22T12:23:14;71.19;67.16;76.00;;
74292;Laerm;62687;55.738;37.516;2022-10-22T12:26:03;71.65;66.97;80.18;;
74292;Laerm;62687;55.738;37.516;2022-10-22T12:28:48;72.31;68.42;80.37;;
74292;Laerm;62687;55.738;37.516;2022-10-22T12:31:36;72.14;68.70;75.82;;
74292;Laerm;62687;55.738;37.516;2022-10-22T12:34:22;72.55;68.28;78.41;;
74292;Laerm;62687;55.738;37.516;2022-10-22T12:37:09;72.31;68.87;81.63;;
74292;Laerm;62687;55.738;37.516;2022-10-22T12:39:53;72.66;68.30;81.66;;
74292;Laerm;62687;55.738;37.516;2022-10-22T12:42:37;72.66;68.27;82.17;;
74292;Laerm;62687;55.738;37.516;2022-10-22T12:45:26;72.00;68.50;75.31;;
74292;Laerm;62687;55.738;37.516;2022-10-22T12:48:27;72.28;68.51;79.78;;
74292;Laerm;62687;55.738;37.516;2022-10-22T12:51:18;72.39;68.35;75.44;;
74292;Laerm;62687;55.738;37.516;2022-10-22T12:54:08;72.25;67.73;75.49;;
74292;Laerm;62687;55.738;37.516;2022-10-22T12:56:54;72.21;66.90;86.07;;
74292;Laerm;62687;55.738;37.516;2022-10-22T12:59:40;74.12;67.55;88.33;;
74292;Laerm;62687;55.738;37.516;2022-10-22T13:02:27;71.55;66.40;77.79;;
74292;Laerm;62687;55.738;37.516;2022-10-22T13:08:10;70.75;67.27;74.34;;
74292;Laerm;62687;55.738;37.516;2022-10-22T13:10:55;71.93;68.59;75.07;;
74292;Laerm;62687;55.738;37.516;2022-10-22T13:16:24;71.40;68.48;75.72;;
74292;Laerm;62687;55.738;37.516;2022-10-22T13:22:32;71.32;67.62;75.80;;
74292;Laerm;62687;55.738;37.516;2022-10-22T13:25:23;72.06;67.90;79.64;;
74292;Laerm;62687;55.738;37.516;2022-10-22T13:31:13;72.00;68.38;77.76;;
74292;Laerm;62687;55.738;37.516;2022-10-22T13:34:01;71.94;67.95;75.85;;
74292;Laerm;62687;55.738;37.516;2022-10-22T13:36:49;72.17;68.49;75.43;;
74292;Laerm;62687;55.738;37.516;2022-10-22T13:39:33;72.63;68.59;82.26;;
74292;Laerm;62687;55.738;37.516;2022-10-22T13:42:17;72.83;69.23;76.47;;
74292;Laerm;62687;55.738;37.516;2022-10-22T13:45:01;72.56;69.32;79.05;;
74292;Laerm;62687;55.738;37.516;2022-10-22T13:47:49;72.37;69.22;75.37;;
74292;Laerm;62687;55.738;37.516;2022-10-22T13:50:34;72.38;68.75;75.74;;
74292;Laerm;62687;55.738;37.516;2022-10-22T13:53:23;72.22;68.59;76.90;;
74292;Laerm;62687;55.738;37.516;2022-10-22T13:56:13;71.98;68.67;77.11;;
74292;Laerm;62687;55.738;37.516;2022-10-22T13:58:58;71.92;68.42;75.89;;
74292;Laerm;62687;55.738;37.516;2022-10-22T14:01:45;72.11;68.53;76.93;;
74292;Laerm;62687;55.738;37.516;2022-10-22T14:04:28;71.99;68.98;75.23;;
74292;Laerm;62687;55.738;37.516;2022-10-22T14:07:16;72.40;68.74;85.35;;
74292;Laerm;62687;55.738;37.516;2022-10-22T14:10:00;72.00;68.19;77.76;;
74292;Laerm;62687;55.738;37.516;2022-10-22T14:12:45;72.24;68.50;76.37;;
74292;Laerm;62687;55.738;37.516;2022-10-22T14:15:30;72.06;68.44;75.68;;
74292;Laerm;62687;55.738;37.516;2022-10-22T14:18:17;71.59;67.74;74.60;;
74292;Laerm;62687;55.738;37.516;2022-10-22T14:21:06;71.98;68.36;75.32;;
74292;Laerm;62687;55.738;37.516;2022-10-22T14:23:51;71.79;67.87;75.48;;
74292;Laerm;62687;55.738;37.516;2022-10-22T14:26:36;72.09;68.86;75.17;;
74292;Laerm;62687;55.738;37.516;2022-10-22T14:29:20;71.87;68.13;75.75;;
74292;Laerm;62687;55.738;37.516;2022-10-22T14:32:12;71.90;67.88;75.33;;
74292;Laerm;62687;55.738;37.516;2022-10-22T14:34:57;71.78;67.71;77.63;;
74292;Laerm;62687;55.738;37.516;2022-10-22T14:37:43;71.99;67.88;74.88;;
74292;Laerm;62687;55.738;37.516;2022-10-22T14:40:27;71.68;66.87;76.45;;
74292;Laerm;62687;55.738;37.516;2022-10-22T14:43:28;70.09;65.14;79.07;;
74292;Laerm;62687;55.738;37.516;2022-10-22T14:46:15;68.28;64.31;75.49;;
74292;Laerm;62687;55.738;37.516;2022-10-22T14:48:59;68.12;64.13;78.17;;
74292;Laerm;62687;55.738;37.516;2022-10-22T14:51:43;70.01;63.63;85.32;;
74292;Laerm;62687;55.738;37.516;2022-10-22T14:54:27;67.35;62.97;73.02;;
74292;Laerm;62687;55.738;37.516;2022-10-22T14:57:11;66.97;62.40;72.37;;
74292;Laerm;62687;55.738;37.516;2022-10-22T14:59:57;68.56;63.63;73.20;;
74292;Laerm;62687;55.738;37.516;2022-10-22T15:02:41;69.85;66.86;73.18;;
74292;Laerm;62687;55.738;37.516;2022-10-22T15:05:26;70.07;66.37;84.51;;
74292;Laerm;62687;55.738;37.516;2022-10-22T15:08:11;69.81;65.69;75.79;;
74292;Laerm;62687;55.738;37.516;2022-10-22T15:11:02;70.92;67.22;76.15;;
74292;Laerm;62687;55.738;37.516;2022-10-22T15:13:47;71.51;68.00;77.81;;
74292;Laerm;62687;55.738;37.516;2022-10-22T15:16:31;71.85;68.17;79.00;;
74292;Laerm;62687;55.738;37.516;2022-10-22T15:19:15;72.17;68.55;76.14;;
74292;Laerm;62687;55.738;37.516;2022-10-22T15:21:59;71.59;67.85;75.50;;
74292;Laerm;62687;55.738;37.516;2022-10-22T15:24:43;71.60;68.02;77.20;;
74292;Laerm;62687;55.738;37.516;2022-10-22T15:27:28;71.65;68.17;79.51;;
74292;Laerm;62687;55.738;37.516;2022-10-22T15:30:13;71.49;67.61;77.22;;
74292;Laerm;62687;55.738;37.516;2022-10-22T15:32:57;71.46;67.80;75.03;;
74292;Laerm;62687;55.738;37.516;2022-10-22T15:35:41;71.22;66.96;74.66;;
74292;Laerm;62687;55.738;37.516;2022-10-22T15:38:28;71.25;65.34;75.27;;
74292;Laerm;62687;55.738;37.516;2022-10-22T15:41:12;71.84;67.85;78.09;;
74292;Laerm;62687;55.738;37.516;2022-10-22T15:43:56;71.17;67.43;76.36;;
74292;Laerm;62687;55.738;37.516;2022-10-22T15:46:40;72.17;68.17;77.48;;
74292;Laerm;62687;55.738;37.516;2022-10-22T15:49:25;71.54;66.99;75.80;;
74292;Laerm;62687;55.738;37.516;2022-10-22T15:52:10;71.67;68.17;75.15;;
74292;Laerm;62687;55.738;37.516;2022-10-22T15:54:54;71.83;68.41;83.82;;
74292;Laerm;62687;55.738;37.516;2022-10-22T15:57:38;71.39;66.92;75.13;;
74292;Laerm;62687;55.738;37.516;2022-10-22T16:00:22;71.53;67.68;77.56;;
74292;Laerm;62687;55.738;37.516;2022-10-22T16:03:08;71.25;67.57;75.84;;
74292;Laerm;62687;55.738;37.516;2022-10-22T16:05:52;71.36;67.65;75.63;;
74292;Laerm;62687;55.738;37.516;2022-10-22T16:08:37;71.87;68.33;76.82;;
74292;Laerm;62687;55.738;37.516;2022-10-22T16:11:22;71.41;68.14;78.57;;
74292;Laerm;62687;55.738;37.516;2022-10-22T16:14:06;71.47;65.82;76.37;;
74292;Laerm;62687;55.738;37.516;2022-10-22T16:16:52;71.96;67.52;75.59;;
74292;Laerm;62687;55.738;37.516;2022-10-22T16:19:38;71.67;67.40;76.03;;
74292;Laerm;62687;55.738;37.516;2022-10-22T16:22:22;72.01;67.91;78.05;;
74292;Laerm;62687;55.738;37.516;2022-10-22T16:25:06;71.35;66.64;77.82;;
74292;Laerm;62687;55.738;37.516;2022-10-22T16:27:50;71.31;67.69;74.61;;
74292;Laerm;62687;55.738;37.516;2022-10-22T16:30:36;71.83;67.26;76.54;;
74292;Laerm;62687;55.738;37.516;2022-10-22T16:33:21;71.99;68.12;76.69;;
74292;Laerm;62687;55.738;37.516;2022-10-22T16:36:09;72.84;67.83;84.82;;
74292;Laerm;62687;55.738;37.516;2022-10-22T16:38:53;71.70;67.26;78.31;;
74292;Laerm;62687;55.738;37.516;2022-10-22T16:41:39;71.58;67.37;86.92;;
74292;Laerm;62687;55.738;37.516;2022-10-22T16:44:23;71.60;66.91;77.25;;
74292;Laerm;62687;55.738;37.516;2022-10-22T16:47:07;71.67;67.91;77.77;;
74292;Laerm;62687;55.738;37.516;2022-10-22T16:49:51;71.96;68.68;77.91;;
74292;Laerm;62687;55.738;37.516;2022-10-22T16:52:35;72.11;68.39;88.09;;
74292;Laerm;62687;55.738;37.516;2022-10-22T16:55:19;71.90;67.46;77.13;;
74292;Laerm;62687;55.738;37.516;2022-10-22T16:58:04;71.52;67.27;74.96;;
74292;Laerm;62687;55.738;37.516;2022-10-22T17:00:48;71.98;68.13;79.13;;
74292;Laerm;62687;55.738;37.516;2022-10-22T17:03:33;71.19;66.24;83.37;;